Stations météo

réclame
Mon MeteoGroup
Villardeciervos, Espagne (8125): Température de l'air & dewpoint: 13.07.2018 22:00:00 - 19.07.2018 22:00:00 (CEST)Villardeciervos, Espagne (8125): Vitesse du vent & gusts: 13.07.2018 22:00:00 - 19.07.2018 22:00:00 (CEST)Villardeciervos, Espagne (8125): Direction du vent: 13.07.2018 22:00:00 - 19.07.2018 22:00:00 (CEST)Villardeciervos, Espagne (8125): visibility: 13.07.2018 22:00:00 - 19.07.2018 22:00:00 (CEST)Villardeciervos, Espagne (8125): Ensoleillement: 13.07.2018 22:00:00 - 19.07.2018 22:00:00 (CEST)Villardeciervos, Espagne (8125): Quantités de précipitations: 13.07.2018 22:00:00 - 19.07.2018 22:00:00 (CEST)
Date & Time tt [°C] td [°C] ff [km/h] ff [knt] fx [km/h] fx [knt] dd vv [km] sd [min] rr [mm]
19.07.2018 22:00:00 21,1 12,2 8 4 19 10 W 20 3 0,0
19.07.2018 21:00:00 23,3 12,0 9 5 21 12 WSW 20 26 0,0
19.07.2018 20:00:00 25,8 10,4 12 7 27 14 WSW 20 56 -
19.07.2018 19:00:00 26,5 9,3 12 7 29 16 WSW 20 57 0,0
19.07.2018 18:00:00 27,5 8,9 9 5 30 16 SSW 20 60 0,0
19.07.2018 17:00:00 28,0 7,8 7 4 23 12 WSW 20 58 0,0
19.07.2018 16:00:00 27,8 8,7 6 3 20 11 N 20 56 0,0
19.07.2018 15:00:00 26,8 10,9 9 5 27 14 WNW 20 42 0,0
19.07.2018 14:00:00 25,5 10,9 4 2 16 8 NW 20 39 -
19.07.2018 13:00:00 23,5 12,7 4 2 16 8 WSW 20 45 0,0
19.07.2018 12:00:00 22,6 13,9 4 2 11 6 ENE 20 26 0,0
19.07.2018 11:00:00 20,1 14,4 3 2 11 6 E 20 7 0,0
19.07.2018 10:00:00 18,6 14,9 5 3 14 8 ENE 20 0 0,0
19.07.2018 09:00:00 16,7 14,3 3 2 7 4 SE 20 0 0,0
19.07.2018 08:00:00 15,3 13,9 0 0 7 4 N 16 0 -
19.07.2018 07:00:00 12,8 11,3 4 2 8 4 S 17 0 0,0
19.07.2018 06:00:00 12,2 10,0 0 0 4 2 N 19 0 0,0
19.07.2018 05:00:00 12,9 10,4 1 1 6 4 SSE 20 0 0,0
19.07.2018 04:00:00 13,5 11,0 3 2 5 3 SSW 20 0 0,0
19.07.2018 03:00:00 15,2 12,3 3 1 8 4 SW 20 0 0,0
19.07.2018 02:00:00 16,5 12,6 5 3 10 5 SSW 20 0 -
19.07.2018 01:00:00 17,4 13,2 4 2 8 5 S 20 0 0,0
19.07.2018 00:00:00 19,0 13,7 3 2 18 10 SE 20 0 0,0
18.07.2018 23:00:00 20,8 13,9 11 6 21 12 WSW 20 0 0,0
18.07.2018 22:00:00 22,4 13,9 11 6 21 12 WSW 20 9 0,0
18.07.2018 21:00:00 26,1 10,6 10 6 21 11 W 20 60 0,0
18.07.2018 20:00:00 27,7 5,9 9 5 31 17 WSW 20 60 -
18.07.2018 19:00:00 27,7 8,0 15 8 27 15 SW 20 60 0,0
18.07.2018 18:00:00 28,6 8,3 10 5 27 14 SW 20 60 0,0
18.07.2018 17:00:00 28,1 8,4 12 6 30 16 S 20 60 0,0
18.07.2018 16:00:00 27,9 7,7 14 8 33 18 SW 20 60 0,0
18.07.2018 15:00:00 27,0 8,9 12 7 29 16 SSW 20 59 0,0
18.07.2018 14:00:00 26,5 11,4 14 7 30 16 WSW 20 58 -
18.07.2018 13:00:00 25,8 11,6 16 9 29 16 WSW 20 58 0,0
18.07.2018 12:00:00 24,9 13,5 6 3 14 8 NNW 20 60 0,0
18.07.2018 11:00:00 22,7 13,2 5 3 16 9 ESE 20 60 0,0
18.07.2018 10:00:00 20,5 12,7 7 4 13 7 E 20 60 0,0
18.07.2018 09:00:00 17,8 13,8 4 2 8 5 NNW 20 45 0,0
18.07.2018 08:00:00 15,0 12,0 3 1 7 4 N 20 2 -
18.07.2018 07:00:00 14,6 11,9 4 2 7 4 SSE 20 0 0,0
18.07.2018 06:00:00 14,8 12,3 3 2 6 3 S 20 0 0,0
18.07.2018 05:00:00 14,5 11,8 2 1 6 3 SSW 20 0 0,0
18.07.2018 04:00:00 14,4 11,3 1 1 5 3 S 20 0 0,0
18.07.2018 03:00:00 14,0 10,4 1 1 8 4 ENE 20 0 0,0
18.07.2018 02:00:00 14,1 9,6 2 1 9 5 N 20 0 -
18.07.2018 01:00:00 14,3 9,6 6 3 9 5 S 20 0 0,0
18.07.2018 00:00:00 16,9 9,8 3 1 7 4 W 20 0 0,0
17.07.2018 23:00:00 18,8 9,8 4 2 7 4 S 20 0 0,0
17.07.2018 22:00:00 22,1 10,3 1 1 8 5 SW 20 9 0,0
17.07.2018 21:00:00 27,3 9,6 4 2 14 8 NW 20 60 0,0
17.07.2018 20:00:00 28,5 6,5 5 3 19 11 SW 20 60 -
17.07.2018 19:00:00 28,4 5,9 9 5 26 14 SW 20 60 0,0
17.07.2018 18:00:00 28,2 5,8 8 5 24 13 SSE 20 57 0,0
17.07.2018 17:00:00 27,4 7,8 2 1 30 16 SSW 20 48 0,0
17.07.2018 16:00:00 27,8 8,1 9 5 22 12 W 20 41 0,0
17.07.2018 15:00:00 26,6 11,9 8 4 23 12 N 20 36 0,0
17.07.2018 14:00:00 25,9 10,5 4 2 14 7 NNW 20 60 -
17.07.2018 13:00:00 24,2 10,2 6 3 14 8 ENE 20 60 0,0
17.07.2018 12:00:00 22,3 11,7 4 2 18 10 NNE 20 60 0,0
17.07.2018 11:00:00 20,2 11,9 7 4 18 10 NNE 20 60 0,0
17.07.2018 10:00:00 18,1 11,0 7 4 15 8 ENE 20 60 0,0
17.07.2018 09:00:00 15,9 10,9 4 2 10 6 NNE 20 60 0,0
17.07.2018 08:00:00 11,4 9,4 0 0 5 3 N 20 18 -
17.07.2018 07:00:00 11,0 8,9 1 1 4 2 SW 18 0 0,0
17.07.2018 06:00:00 11,9 9,3 0 0 5 3 N 17 0 0,0
17.07.2018 05:00:00 13,1 10,0 2 1 6 3 N 20 0 0,0
17.07.2018 04:00:00 13,9 9,9 2 1 6 3 ENE 20 0 0,0
17.07.2018 03:00:00 15,3 10,3 3 1 8 5 NNE 20 0 0,0
17.07.2018 02:00:00 16,8 10,4 4 2 16 9 ENE 20 0 -
17.07.2018 01:00:00 15,7 10,4 3 1 17 9 SSE 20 0 0,0
17.07.2018 00:00:00 16,6 10,0 5 3 8 4 SSW 20 0 0,0
16.07.2018 23:00:00 18,0 10,2 3 1 17 9 SE 20 0 0,0
16.07.2018 22:00:00 20,6 9,6 12 6 21 11 SW 20 9 0,0
16.07.2018 21:00:00 23,9 10,2 8 5 21 11 SW 20 60 0,0
16.07.2018 20:00:00 25,6 9,4 10 5 20 11 SW 20 58 -
16.07.2018 19:00:00 26,4 8,8 11 6 24 13 SW 20 49 0,0
16.07.2018 18:00:00 25,5 10,2 9 5 23 12 WSW 20 44 0,0
16.07.2018 17:00:00 25,9 10,5 10 5 25 13 SW 20 47 0,0
16.07.2018 16:00:00 25,3 9,2 12 6 24 13 WSW 20 46 0,0
16.07.2018 15:00:00 26,1 10,6 7 4 21 11 WSW 20 54 0,0
16.07.2018 14:00:00 24,0 8,4 5 3 19 10 SW 20 49 -
16.07.2018 13:00:00 23,4 9,0 7 4 17 9 NNW 20 56 0,0
16.07.2018 12:00:00 22,1 9,3 6 3 19 11 SW 20 47 0,0
16.07.2018 11:00:00 21,5 10,0 6 3 11 6 E 20 60 0,0
16.07.2018 10:00:00 18,9 11,0 3 2 7 4 NW 20 60 0,0
16.07.2018 09:00:00 15,7 10,0 2 1 8 5 E 20 60 0,0
16.07.2018 08:00:00 11,0 8,9 2 1 7 4 ENE 20 18 -
16.07.2018 07:00:00 9,9 7,6 4 2 8 4 SSE 20 0 0,0
16.07.2018 06:00:00 11,9 8,5 5 3 10 5 ESE 20 0 0,0
16.07.2018 05:00:00 12,7 8,9 7 4 12 6 SE 20 0 0,0
16.07.2018 04:00:00 13,0 9,3 3 2 11 6 SW 20 0 0,0
16.07.2018 03:00:00 13,4 9,3 6 4 11 6 SW 20 0 0,0
16.07.2018 02:00:00 14,0 9,4 8 4 13 7 SSW 20 0 -
16.07.2018 01:00:00 13,9 9,6 8 4 12 7 SSE 20 0 0,0
16.07.2018 00:00:00 14,3 9,6 5 3 14 8 S 20 0 0,0
15.07.2018 23:00:00 16,4 10,0 3 2 20 11 SE 20 0 0,0
15.07.2018 22:00:00 17,9 10,0 11 6 22 12 W 20 0 0,0
15.07.2018 21:00:00 19,5 10,5 10 5 25 14 W 8 8 0,0
15.07.2018 20:00:00 21,2 11,0 14 7 34 18 WNW 20 59 -
15.07.2018 19:00:00 24,1 10,0 15 8 35 19 W 20 49 0,0
15.07.2018 18:00:00 24,3 9,0 17 9 34 18 W 20 45 0,0
15.07.2018 17:00:00 24,7 8,3 16 9 37 20 SSW 20 51 0,0
15.07.2018 16:00:00 24,1 10,4 17 9 35 19 SW 20 48 0,0
15.07.2018 15:00:00 24,4 9,9 12 7 36 19 SSW 20 53 0,0
15.07.2018 14:00:00 23,4 8,3 9 5 23 12 SSW 20 42 -
15.07.2018 13:00:00 23,1 9,8 6 4 25 14 WSW 20 52 0,0
15.07.2018 12:00:00 21,0 10,2 11 6 25 13 WSW 20 60 0,0
15.07.2018 11:00:00 17,5 12,6 13 7 26 14 WSW 15 23 0,0
15.07.2018 10:00:00 17,2 12,7 12 7 24 13 SW 19 14 0,0
15.07.2018 09:00:00 15,8 13,1 7 4 56 31 S 12 6 0,0
15.07.2018 08:00:00 15,1 13,9 5 3 19 10 N 12 15 -
15.07.2018 07:00:00 11,9 10,5 2 1 15 8 S 10 0 0,0
15.07.2018 06:00:00 12,0 10,0 2 1 5 3 W 9 0 0,0
15.07.2018 05:00:00 12,7 10,3 2 1 6 3 SSE 17 0 0,0
15.07.2018 04:00:00 14,1 11,1 3 1 14 8 SE 19 0 0,0
15.07.2018 03:00:00 15,0 11,2 5 3 10 5 NW 20 0 0,0
15.07.2018 02:00:00 15,2 11,3 6 4 11 6 S 20 0 -
15.07.2018 01:00:00 14,9 10,3 4 2 11 6 S 20 0 0,0
15.07.2018 00:00:00 16,8 10,6 4 2 14 7 SSW 20 0 0,0
14.07.2018 23:00:00 18,5 10,3 4 2 16 9 N 20 0 0,0
14.07.2018 22:00:00 21,3 10,4 8 4 12 7 SW 20 9 0,0
14.07.2018 21:00:00 25,8 8,8 6 4 20 11 WSW 20 51 0,0
14.07.2018 20:00:00 25,7 7,7 10 5 29 15 SW 20 44 -
14.07.2018 19:00:00 27,4 7,3 13 7 31 17 SSW 20 57 0,0
14.07.2018 18:00:00 28,6 8,3 11 6 28 15 SW 20 57 0,0
14.07.2018 17:00:00 28,7 6,7 9 5 27 15 S 20 60 0,0
14.07.2018 16:00:00 28,2 5,8 12 7 30 16 SW 20 60 0,0
14.07.2018 15:00:00 26,5 8,9 8 5 22 12 SSW 20 52 0,0
14.07.2018 14:00:00 27,0 10,6 11 6 22 12 SSW 20 55 -
14.07.2018 13:00:00 26,2 12,3 5 3 16 9 S 20 53 0,0
14.07.2018 12:00:00 24,2 12,8 5 3 12 6 WSW 20 60 0,0
14.07.2018 11:00:00 22,5 11,9 4 2 14 8 N 20 60 0,0
14.07.2018 10:00:00 20,2 11,4 4 2 8 4 E 20 60 0,0
14.07.2018 09:00:00 15,7 11,7 0 0 4 2 N 20 60 0,0
14.07.2018 08:00:00 12,0 10,3 1 1 4 2 NNE 20 19 -
14.07.2018 07:00:00 10,5 8,7 4 2 6 3 S 20 0 0,0
14.07.2018 06:00:00 11,4 9,7 3 2 7 4 SSW 20 0 0,0
14.07.2018 05:00:00 11,1 9,0 3 1 7 4 S 20 0 0,0
14.07.2018 04:00:00 12,4 9,6 3 2 8 4 SSE 20 0 0,0
14.07.2018 03:00:00 14,3 10,5 4 2 7 4 SSW 20 0 0,0
14.07.2018 02:00:00 15,6 10,5 3 1 7 4 S 20 0 -
14.07.2018 01:00:00 15,5 10,6 4 2 8 4 S 20 0 0,0
14.07.2018 00:00:00 16,9 11,0 4 2 10 6 S 20 0 0,0
13.07.2018 23:00:00 17,8 10,6 6 3 24 13 ENE 20 0 0,0
13.07.2018 22:00:00 19,2 10,2 10 6 35 19 NNE 20 0 0,0

tt = Température de l'air
td = dewpoint
ff = Vitesse du vent
fx = gusts
dd = Direction du vent
vv = visibility
sd = Ensoleillement
rr = Quantités de précipitations

stations d'obs. à proximité